Millheim, Pennsylvania
Current Conditions -  °F | °C
As of 3:35 AM on Monday 26 Jan 2015 (Local Time) from KUNV Reporting Station
Light Snow Light Snow  
Wind Chill:   Ceiling: 3000
Heat Index: 18°   Visibility: 1.7mi
Dew Point: 15°   Wind: 14mph
Humidity: 87%   Direction: 40°NE
Pressure: 29.85"   Gusts: 21mph
Location:  40.89°N, 77.48°W
Report Text: KUNV 260835Z AUTO 04012G18KT 1 3/4SM -SN SCT012 OVC030 M08/M10 A2985 RMK AO2 T10781096
Loading
Personal Weather Stations






























Interactive Weather Map New forecast layout! Learn more

10-Day Weather Forecast

Advertisements
Track Severe Weather on mobile